Time;durP1;ratioP1;P1;durP2;ratioP2;P2;SDS_P1;SDS_P2;PMS_P1;PMS_P2;Temp;Humidity;BMP_temperature;BMP_pressure;BME280_temperature;BME280_humidity;BME280_pressure;Samples;Min_cycle;Max_cycle;Signal;HPM_P1;HPM_P2
2023/08/30 00:00:21;;;;;;;0.50;0.50;;;;;;;12.32;100.00;96316.38;29395;242;63005;-63
2023/08/30 00:00:52;;;;;;;0.50;0.50;;;;;;;12.33;100.00;96319.91;29395;228;63009;-61
2023/08/30 00:01:24;;;;;;;0.50;0.50;;;;;;;12.33;100.00;96317.19;29395;208;63004;-63
2023/08/30 00:01:55;;;;;;;0.50;0.50;;;;;;;12.34;100.00;96324.22;29394;240;64013;-62
2023/08/30 00:02:27;;;;;;;0.50;0.50;;;;;;;12.32;100.00;96315.59;29395;209;63004;-62
2023/08/30 00:02:58;;;;;;;0.50;0.50;;;;;;;12.32;100.00;96318.31;29395;267;63009;-62
2023/08/30 00:03:32;;;;;;;0.50;0.50;;;;;;;12.29;100.00;96311.59;29395;207;63004;-62
2023/08/30 00:04:04;;;;;;;0.50;0.50;;;;;;;12.33;100.00;96317.19;29394;230;64008;-62
2023/08/30 00:04:36;;;;;;;0.50;0.50;;;;;;;12.33;100.00;96317.19;29395;196;63004;-63
2023/08/30 00:05:09;;;;;;;0.50;0.50;;;;;;;12.34;100.00;96321.50;29395;222;63008;-63
2023/08/30 00:05:46;;;;;;;0.50;0.50;;;;;;;12.34;100.00;96324.22;29395;225;63012;-62
2023/08/30 00:06:18;;;;;;;0.50;0.50;;;;;;;12.34;100.00;96316.06;29395;343;63009;-63
2023/08/30 00:06:49;;;;;;;0.50;0.50;;;;;;;12.34;100.00;96318.78;29395;225;63005;-63
2023/08/30 00:07:21;;;;;;;0.50;0.50;;;;;;;12.35;100.00;96320.41;29394;213;64013;-62
2023/08/30 00:07:52;;;;;;;0.50;0.50;;;;;;;12.34;100.00;96314.16;29395;196;63005;-62
2023/08/30 00:08:23;;;;;;;0.50;0.50;;;;;;;12.36;100.00;96324.72;29394;208;64019;-62
2023/08/30 00:08:57;;;;;;;0.50;0.50;;;;;;;12.36;100.00;96316.56;29395;208;63005;-62
2023/08/30 00:09:28;;;;;;;0.50;0.50;;;;;;;12.35;100.00;96321.19;29395;309;63025;-63
2023/08/30 00:09:59;;;;;;;0.50;0.50;;;;;;;12.36;100.00;96316.56;29395;218;63004;-62
2023/08/30 00:10:34;;;;;;;0.50;0.50;;;;;;;12.35;100.00;96321.19;29395;210;63009;-63
2023/08/30 00:11:06;;;;;;;0.50;0.50;;;;;;;12.35;100.00;96314.97;29395;225;63004;-63
2023/08/30 00:11:39;;;;;;;0.40;0.40;;;;;;;12.36;100.00;96322.00;29395;238;63008;-62
2023/08/30 00:12:10;;;;;;;0.50;0.50;;;;;;;12.37;100.00;96312.72;29395;220;63004;-63
2023/08/30 00:12:42;;;;;;;0.50;0.50;;;;;;;12.37;100.00;96310.81;29394;206;64014;-62
2023/08/30 00:13:13;;;;;;;0.50;0.50;;;;;;;12.39;100.00;96316.72;29395;205;63005;-62
2023/08/30 00:13:44;;;;;;;0.40;0.40;;;;;;;12.39;100.00;96313.19;29395;260;63009;-62
2023/08/30 00:14:16;;;;;;;0.50;0.50;;;;;;;12.40;100.00;96318.31;29395;215;63007;-62
2023/08/30 00:14:47;;;;;;;0.50;0.50;;;;;;;12.40;100.00;96312.87;29395;237;63009;-62
2023/08/30 00:15:19;;;;;;;0.50;0.50;;;;;;;12.41;100.00;96309.06;29395;222;63005;-63
2023/08/30 00:15:50;;;;;;;0.50;0.50;;;;;;;12.41;100.00;96319.13;29395;245;63009;-62
2023/08/30 00:16:21;;;;;;;0.50;0.50;;;;;;;12.40;100.00;96315.59;29395;285;63008;-64
2023/08/30 00:16:52;;;;;;;0.50;0.50;;;;;;;12.42;100.00;96315.28;29394;202;64009;-64
2023/08/30 00:17:24;;;;;;;0.50;0.50;;;;;;;12.43;100.00;96316.91;29395;215;63004;-62
2023/08/30 00:17:56;;;;;;;0.50;0.50;;;;;;;12.41;100.00;96313.69;29394;209;64013;-63
2023/08/30 00:18:28;;;;;;;0.50;0.50;;;;;;;12.41;100.00;96317.22;29395;210;63004;-63
2023/08/30 00:19:00;;;;;;;0.50;0.50;;;;;;;12.42;100.00;96309.84;29395;215;63009;-64
2023/08/30 00:19:31;;;;;;;0.50;0.50;;;;;;;12.40;100.00;96312.09;29395;203;63004;-62
2023/08/30 00:20:04;;;;;;;0.50;0.50;;;;;;;12.40;100.00;96309.38;29395;216;63009;-63
2023/08/30 00:20:38;;;;;;;0.50;0.50;;;;;;;12.40;100.00;96312.09;29395;219;63005;-63
2023/08/30 00:21:09;;;;;;;0.50;0.50;;;;;;;12.39;100.00;96313.19;29395;197;63009;-63
2023/08/30 00:21:41;;;;;;;0.50;0.50;;;;;;;12.39;100.00;96300.41;29395;351;63005;-63
2023/08/30 00:22:12;;;;;;;0.50;0.50;;;;;;;12.39;100.00;96307.75;29395;202;63009;-63
2023/08/30 00:22:44;;;;;;;0.50;0.50;;;;;;;12.38;100.00;96309.69;29395;202;63005;-62
2023/08/30 00:23:16;;;;;;;0.50;0.50;;;;;;;12.38;100.00;96311.59;29394;242;64013;-63
2023/08/30 00:23:47;;;;;;;0.50;0.50;;;;;;;12.35;100.00;96307.59;29395;206;63005;-63
2023/08/30 00:24:22;;;;;;;0.50;0.50;;;;;;;12.36;100.00;96311.13;29395;226;63009;-62
2023/08/30 00:24:53;;;;;;;0.50;0.50;;;;;;;12.35;100.00;96306.78;29395;239;63004;-62
2023/08/30 00:25:25;;;;;;;0.50;0.50;;;;;;;12.35;100.00;96304.06;29395;231;63009;-65
2023/08/30 00:25:57;;;;;;;0.50;0.50;;;;;;;12.36;100.00;96305.69;29395;202;63004;-62
2023/08/30 00:26:28;;;;;;;0.50;0.50;;;;;;;12.36;100.00;96300.25;29395;199;63009;-64
2023/08/30 00:27:02;;;;;;;0.50;0.50;;;;;;;12.36;100.00;96305.69;29395;202;63008;-63
2023/08/30 00:27:35;;;;;;;0.40;0.40;;;;;;;12.37;100.00;96301.84;29395;271;63009;-62
2023/08/30 00:28:07;;;;;;;0.40;0.40;;;;;;;12.36;100.00;96302.94;29395;214;63005;-64
2023/08/30 00:28:38;;;;;;;0.50;0.50;;;;;;;12.36;100.00;96306.47;29394;234;64014;-63
2023/08/30 00:29:11;;;;;;;0.40;0.40;;;;;;;12.34;100.00;96297.84;29395;321;63005;-63
2023/08/30 00:29:45;;;;;;;0.40;0.40;;;;;;;12.34;100.00;96307.91;29395;230;63009;-62
2023/08/30 00:30:16;;;;;;;0.50;0.50;;;;;;;12.34;100.00;96302.47;29395;206;63005;-62
2023/08/30 00:30:54;;;;;;;0.50;0.50;;;;;;;12.34;100.00;96305.19;29395;221;63009;-63
2023/08/30 00:31:25;;;;;;;0.47;0.47;;;;;;;12.35;100.00;96304.87;29395;188;63005;-63
2023/08/30 00:31:56;;;;;;;0.40;0.40;;;;;;;12.36;100.00;96305.69;29395;321;63021;-64
2023/08/30 00:32:27;;;;;;;0.40;0.40;;;;;;;12.36;100.00;96301.03;29395;226;63004;-63
2023/08/30 00:32:59;;;;;;;0.40;0.40;;;;;;;12.35;100.00;96298.63;29395;215;63009;-63
2023/08/30 00:33:34;;;;;;;0.50;0.50;;;;;;;12.35;100.00;96298.63;29395;228;63004;-63
2023/08/30 00:34:05;;;;;;;0.40;0.40;;;;;;;12.33;100.00;96301.66;29394;226;64013;-63
2023/08/30 00:34:36;;;;;;;0.50;0.50;;;;;;;12.33;100.00;96300.88;29395;222;63004;-63
2023/08/30 00:35:08;;;;;;;0.50;0.50;;;;;;;12.33;100.00;96298.16;29395;217;63009;-63
2023/08/30 00:35:39;;;;;;;0.43;0.43;;;;;;;12.32;100.00;96299.25;29395;220;63010;-63
2023/08/30 00:36:14;;;;;;;0.50;0.50;;;;;;;12.32;100.00;96293.81;29395;229;63009;-63
2023/08/30 00:36:46;;;;;;;0.50;0.50;;;;;;;12.31;100.00;96292.22;29395;339;63005;-63
2023/08/30 00:37:21;;;;;;;0.50;0.50;;;;;;;12.31;100.00;96292.22;29395;203;63009;-64
2023/08/30 00:37:52;;;;;;;0.50;0.50;;;;;;;12.31;100.00;96300.38;29395;235;63005;-63
2023/08/30 00:38:24;;;;;;;0.50;0.50;;;;;;;12.30;100.00;96291.44;29395;227;63009;-64
2023/08/30 00:38:55;;;;;;;0.50;0.50;;;;;;;12.29;100.00;96292.53;29394;320;64009;-64
2023/08/30 00:39:26;;;;;;;0.40;0.40;;;;;;;12.30;100.00;96293.34;29395;232;63009;-64
2023/08/30 00:39:59;;;;;;;0.43;0.43;;;;;;;12.30;100.00;96290.63;29395;239;63004;-65
2023/08/30 00:40:42;;;;;;;0.50;0.50;;;;;;;12.30;100.00;96291.44;29395;283;63009;-63
2023/08/30 00:41:13;;;;;;;0.50;0.50;;;;;;;12.31;100.00;96292.22;29395;266;63004;-63
2023/08/30 00:41:44;;;;;;;0.50;0.50;;;;;;;12.31;100.00;96289.50;29395;206;63008;-63
2023/08/30 00:42:15;;;;;;;0.50;0.50;;;;;;;12.32;100.00;96291.09;29395;200;63004;-63
2023/08/30 00:42:46;;;;;;;0.50;0.50;;;;;;;12.32;100.00;96282.94;29394;238;64014;-65
2023/08/30 00:43:18;;;;;;;0.50;0.50;;;;;;;12.31;100.00;96287.59;29395;213;63005;-65
2023/08/30 00:43:49;;;;;;;0.50;0.50;;;;;;;12.30;100.00;96282.47;29395;258;63009;-63
2023/08/30 00:44:21;;;;;;;0.40;0.40;;;;;;;12.30;100.00;96290.63;29395;277;63005;-63
2023/08/30 00:44:52;;;;;;;0.50;0.50;;;;;;;12.30;100.00;96288.69;29394;267;64032;-63
2023/08/30 00:45:24;;;;;;;0.50;0.50;;;;;;;12.30;100.00;96282.47;29395;218;63005;-64
2023/08/30 00:45:56;;;;;;;0.50;0.50;;;;;;;12.30;100.00;96285.19;29395;214;63009;-62
2023/08/30 00:46:30;;;;;;;0.50;0.50;;;;;;;12.30;100.00;96282.47;29395;360;63005;-62
2023/08/30 00:47:05;;;;;;;0.50;0.50;;;;;;;12.30;100.00;96279.75;29395;205;63009;-63
2023/08/30 00:47:37;;;;;;;0.43;0.43;;;;;;;12.30;100.00;96287.91;29395;315;63010;-63
2023/08/30 00:48:09;;;;;;;0.50;0.50;;;;;;;12.31;100.00;96278.62;29395;337;63009;-63
2023/08/30 00:48:41;;;;;;;0.50;0.50;;;;;;;12.32;100.00;96281.03;29395;232;63004;-63
2023/08/30 00:49:13;;;;;;;0.50;0.50;;;;;;;12.32;100.00;96274.78;29395;219;63008;-63
2023/08/30 00:49:48;;;;;;;0.50;0.50;;;;;;;12.31;100.00;96275.91;29394;234;64008;-64
2023/08/30 00:50:20;;;;;;;0.50;0.50;;;;;;;12.31;100.00;96286.78;29395;219;63009;-63
2023/08/30 00:50:52;;;;;;;0.50;0.50;;;;;;;12.29;100.00;96283.56;29394;222;64005;-62
2023/08/30 00:51:23;;;;;;;0.40;0.40;;;;;;;12.28;100.00;96277.34;29395;227;63009;-63
2023/08/30 00:51:55;;;;;;;0.50;0.50;;;;;;;12.29;100.00;96283.56;29395;267;63005;-56
2023/08/30 00:52:26;;;;;;;0.50;0.50;;;;;;;12.29;100.00;96278.12;29395;218;63009;-64
2023/08/30 00:52:58;;;;;;;0.50;0.50;;;;;;;12.26;100.00;96274.13;29395;202;63005;-64
2023/08/30 00:53:29;;;;;;;0.50;0.50;;;;;;;12.29;100.00;96276.22;29394;212;64009;-63
2023/08/30 00:54:04;;;;;;;0.50;0.50;;;;;;;12.30;100.00;96274.31;29395;197;63004;-63
2023/08/30 00:54:38;;;;;;;0.47;0.47;;;;;;;12.29;100.00;96273.50;29395;211;63009;-63
2023/08/30 00:55:10;;;;;;;0.50;0.50;;;;;;;12.28;100.00;96277.34;29394;198;64009;-63
2023/08/30 00:55:43;;;;;;;0.40;0.40;;;;;;;12.27;100.00;96281.19;29395;237;63009;-63
2023/08/30 00:56:15;;;;;;;0.50;0.50;;;;;;;12.29;100.00;96270.78;29394;257;64004;-63
2023/08/30 00:56:47;;;;;;;0.40;0.40;;;;;;;12.28;100.00;96276.53;29395;199;63008;-63
2023/08/30 00:57:19;;;;;;;0.50;0.50;;;;;;;12.27;100.00;96281.19;29394;239;64008;-64
2023/08/30 00:57:51;;;;;;;0.50;0.50;;;;;;;12.26;100.00;96276.06;29395;212;63009;-65
2023/08/30 00:58:26;;;;;;;0.50;0.50;;;;;;;12.26;100.00;96274.13;29395;243;63005;-63
2023/08/30 00:58:57;;;;;;;0.40;0.40;;;;;;;12.24;100.00;96268.22;29395;200;63009;-63
2023/08/30 00:59:31;;;;;;;0.43;0.43;;;;;;;12.25;100.00;96266.28;29395;239;63005;-64
2023/08/30 01:00:07;;;;;;;0.43;0.43;;;;;;;12.25;100.00;96263.56;29395;220;63009;-64
2023/08/30 01:00:39;;;;;;;0.40;0.40;;;;;;;12.25;100.00;96271.72;29394;221;64009;-63
2023/08/30 01:01:11;;;;;;;0.50;0.50;;;;;;;12.26;100.00;96273.34;29395;204;63009;-64
2023/08/30 01:01:45;;;;;;;0.50;0.50;;;;;;;12.27;100.00;96272.22;29395;208;63018;-63
2023/08/30 01:02:16;;;;;;;0.50;0.50;;;;;;;12.26;100.00;96268.69;29395;202;63023;-63
2023/08/30 01:02:48;;;;;;;1.45;1.45;;;;;;;12.26;100.00;96274.13;29395;216;63004;-63
2023/08/30 01:03:21;;;;;;;0.50;0.50;;;;;;;12.25;100.00;96267.09;29395;228;63009;-65
2023/08/30 01:03:52;;;;;;;0.40;0.40;;;;;;;12.26;100.00;96270.62;29395;288;63004;-56
2023/08/30 01:04:25;;;;;;;0.50;0.50;;;;;;;12.26;100.00;96268.69;29395;333;63009;-64
2023/08/30 01:04:59;;;;;;;0.50;0.50;;;;;;;12.27;100.00;96269.50;29395;249;63005;-65
2023/08/30 01:05:31;;;;;;;0.40;0.40;;;;;;;12.28;100.00;96271.09;29395;203;63005;-63
2023/08/30 01:06:03;;;;;;;0.50;0.50;;;;;;;12.29;100.00;96267.25;29394;199;64009;-65
2023/08/30 01:06:35;;;;;;;0.40;0.40;;;;;;;12.28;100.00;96265.66;29395;299;63009;-66
2023/08/30 01:07:06;;;;;;;0.50;0.50;;;;;;;12.29;100.00;96261.81;29395;214;63012;-64
2023/08/30 01:07:37;;;;;;;0.50;0.50;;;;;;;12.29;100.00;96261.81;29395;220;63009;-63
2023/08/30 01:08:11;;;;;;;0.50;0.50;;;;;;;12.29;100.00;96265.34;29395;196;63005;-63
2023/08/30 01:08:43;;;;;;;0.50;0.50;;;;;;;12.29;100.00;96261.81;29395;230;63009;-63
2023/08/30 01:09:16;;;;;;;0.40;0.40;;;;;;;12.30;100.00;96257.97;29395;235;63004;-62
2023/08/30 01:09:47;;;;;;;0.50;0.50;;;;;;;12.29;100.00;96262.62;29395;228;63009;-63
2023/08/30 01:10:28;;;;;;;0.50;0.50;;;;;;;12.28;100.00;96261.00;29394;205;64009;-63
2023/08/30 01:11:30;;;;;;;0.50;0.50;;;;;;;12.30;100.00;96268.84;29395;218;63009;-56
2023/08/30 01:12:12;;;;;;;0.50;0.50;;;;;;;12.29;100.00;96256.38;29417;246;63005;-63
2023/08/30 01:12:48;;;;;;;0.50;0.50;;;;;;;12.30;100.00;96257.97;29395;209;63009;-64
2023/08/30 01:13:20;;;;;;;0.40;0.40;;;;;;;12.30;100.00;96263.41;29395;223;63005;-63
2023/08/30 01:13:58;;;;;;;0.40;0.40;;;;;;;12.30;100.00;96257.97;29395;326;63009;-64
2023/08/30 01:14:44;;;;;;;0.50;0.50;;;;;;;12.30;100.00;96260.69;29395;204;63005;-62
2023/08/30 01:15:23;;;;;;;0.50;0.50;;;;;;;12.30;100.00;96257.97;29394;214;64013;-56
2023/08/30 01:15:57;;;;;;;0.50;0.50;;;;;;;12.31;100.00;96259.59;29395;199;63005;-64
2023/08/30 01:16:31;;;;;;;0.50;0.50;;;;;;;12.28;100.00;96260.22;29395;198;63009;-63
2023/08/30 01:17:05;;;;;;;0.50;0.50;;;;;;;12.28;100.00;96265.66;29395;241;63017;-55
2023/08/30 01:17:43;;;;;;;0.50;0.50;;;;;;;12.26;100.00;96257.81;29395;212;63009;-64
2023/08/30 01:18:19;;;;;;;0.50;0.50;;;;;;;12.25;100.00;96263.56;29395;197;63004;-63
2023/08/30 01:18:56;;;;;;;0.50;0.50;;;;;;;12.26;100.00;96257.00;29395;210;63022;-63
2023/08/30 01:19:57;;;;;;;0.40;0.40;;;;;;;12.26;100.00;96257.00;29395;226;63015;-63
2023/08/30 01:20:29;;;;;;;0.40;0.40;;;;;;;12.25;100.00;96258.13;29394;220;64014;-63
2023/08/30 01:21:05;;;;;;;0.50;0.50;;;;;;;12.26;100.00;96259.72;29395;213;63005;-65
2023/08/30 01:21:58;;;;;;;0.50;0.50;;;;;;;12.27;100.00;96259.41;29395;214;63009;-62
2023/08/30 01:22:43;;;;;;;0.50;0.50;;;;;;;12.28;100.00;96249.34;29395;231;63005;-63
2023/08/30 01:23:40;;;;;;;0.50;0.50;;;;;;;12.28;100.00;96254.78;29395;196;63026;-63
2023/08/30 01:24:15;;;;;;;0.50;0.50;;;;;;;12.27;100.00;96253.97;29395;227;63004;-65
2023/08/30 01:25:21;;;;;;;0.50;0.50;;;;;;;12.26;100.00;96251.56;29395;224;63009;-64
2023/08/30 01:26:40;;;;;;;0.50;0.50;;;;;;;12.25;100.00;96252.69;29394;253;64000;-65
2023/08/30 01:27:13;;;;;;;0.50;0.50;;;;;;;12.27;100.00;96250.44;29395;300;63009;-62
2023/08/30 01:27:47;;;;;;;0.50;0.50;;;;;;;12.26;100.00;96252.38;29395;231;63005;-63
2023/08/30 01:28:23;;;;;;;0.40;0.40;;;;;;;12.26;100.00;96251.56;29395;212;63009;-63
2023/08/30 01:28:59;;;;;;;0.50;0.50;;;;;;;12.24;100.00;96246.44;29395;252;63005;-63
2023/08/30 01:29:32;;;;;;;0.50;0.50;;;;;;;12.24;100.00;96253.81;29395;202;63009;-62
2023/08/30 01:30:10;;;;;;;0.50;0.50;;;;;;;12.24;100.00;96254.59;29395;214;63005;-64
2023/08/30 01:30:45;;;;;;;0.50;0.50;;;;;;;12.25;100.00;96258.13;29395;205;63009;-55
2023/08/30 01:31:18;;;;;;;0.50;0.50;;;;;;;12.23;100.00;96253.00;29394;216;64009;-63
2023/08/30 01:31:54;;;;;;;0.50;0.50;;;;;;;12.24;100.00;96254.59;29395;214;63009;-64
2023/08/30 01:32:28;;;;;;;0.50;0.50;;;;;;;12.23;100.00;96252.22;29395;197;63004;-63
2023/08/30 01:33:03;;;;;;;0.50;0.50;;;;;;;12.22;100.00;96251.41;29395;239;63009;-63
2023/08/30 01:33:36;;;;;;;0.50;0.50;;;;;;;12.21;100.00;96249.81;29395;210;63004;-65
2023/08/30 01:34:08;;;;;;;0.50;0.50;;;;;;;12.22;100.00;96250.59;29395;221;63008;-62
2023/08/30 01:34:42;;;;;;;0.50;0.50;;;;;;;12.21;100.00;96249.81;29395;205;63005;-63
2023/08/30 01:35:19;;;;;;;0.40;0.40;;;;;;;12.21;100.00;96255.25;29395;234;63009;-64
2023/08/30 01:35:53;;;;;;;0.50;0.50;;;;;;;12.22;100.00;96256.03;29395;209;63005;-65
2023/08/30 01:36:24;;;;;;;0.50;0.50;;;;;;;12.22;100.00;96258.75;29394;327;64013;-64
2023/08/30 01:36:56;;;;;;;0.50;0.50;;;;;;;12.21;100.00;96257.16;29395;280;63009;-63
2023/08/30 01:37:29;;;;;;;0.50;0.50;;;;;;;12.21;100.00;96254.44;29395;211;63009;-64
2023/08/30 01:38:03;;;;;;;0.40;0.40;;;;;;;12.19;100.00;96256.69;29395;204;63005;-64
2023/08/30 01:38:36;;;;;;;0.50;0.50;;;;;;;12.20;100.00;96258.28;29395;200;63009;-63
2023/08/30 01:39:10;;;;;;;0.50;0.50;;;;;;;12.19;100.00;96256.69;29395;351;63004;-63
2023/08/30 01:39:44;;;;;;;0.47;0.47;;;;;;;12.21;100.00;96254.44;29395;235;63009;-64
2023/08/30 01:40:17;;;;;;;0.50;0.50;;;;;;;12.21;100.00;96254.44;29395;390;63004;-64
2023/08/30 01:40:50;;;;;;;0.50;0.50;;;;;;;12.21;100.00;96259.88;29395;237;63009;-63
2023/08/30 01:41:23;;;;;;;0.50;0.50;;;;;;;12.19;100.00;96262.12;29395;269;63004;-63
2023/08/30 01:41:58;;;;;;;0.40;0.40;;;;;;;12.18;100.00;96255.06;29394;212;64013;-63
2023/08/30 01:42:31;;;;;;;0.50;0.50;;;;;;;12.19;100.00;96262.91;29395;237;63005;-64
2023/08/30 01:43:05;;;;;;;0.50;0.50;;;;;;;12.18;100.00;96261.31;29395;219;63009;-63
2023/08/30 01:43:37;;;;;;;0.50;0.50;;;;;;;12.18;100.00;96260.50;29395;371;63005;-65
2023/08/30 01:44:16;;;;;;;0.50;0.50;;;;;;;12.16;100.00;96258.13;29395;234;63009;-63
2023/08/30 01:44:48;;;;;;;0.50;0.50;;;;;;;12.16;100.00;96251.87;29395;242;63005;-55
2023/08/30 01:45:22;;;;;;;0.50;0.50;;;;;;;12.16;100.00;96262.75;29395;252;63009;-63
2023/08/30 01:45:57;;;;;;;0.50;0.50;;;;;;;12.15;100.00;96261.16;29395;216;63005;-63
2023/08/30 01:46:29;;;;;;;0.50;0.50;;;;;;;12.15;100.00;96261.16;29395;229;63009;-63
2023/08/30 01:47:02;;;;;;;0.50;0.50;;;;;;;12.11;100.00;96254.78;29394;210;64009;-64
2023/08/30 01:47:35;;;;;;;0.50;0.50;;;;;;;12.10;100.00;96253.16;29395;236;63009;-63
2023/08/30 01:48:10;;;;;;;0.47;0.47;;;;;;;12.07;100.00;96255.41;29395;216;63004;-63
2023/08/30 01:48:42;;;;;;;0.50;0.50;;;;;;;12.07;100.00;96258.13;29395;217;63009;-63
2023/08/30 01:49:15;;;;;;;0.40;0.40;;;;;;;12.06;100.00;96253.81;29395;237;63004;-63
2023/08/30 01:49:47;;;;;;;0.50;0.50;;;;;;;12.07;100.00;96260.84;29395;212;63009;-64
2023/08/30 01:50:20;;;;;;;0.50;0.50;;;;;;;12.06;100.00;96253.81;29395;206;63005;-63
2023/08/30 01:50:52;;;;;;;0.50;0.50;;;;;;;12.07;100.00;96258.13;29395;320;63018;-63
2023/08/30 01:51:24;;;;;;;0.47;0.47;;;;;;;12.04;100.00;96260.69;29395;213;63000;-64
2023/08/30 01:51:56;;;;;;;0.50;0.50;;;;;;;12.04;100.00;96264.19;29395;223;63009;-63
2023/08/30 01:52:28;;;;;;;0.50;0.50;;;;;;;12.00;100.00;96256.97;29394;231;64009;-55
2023/08/30 01:53:00;;;;;;;0.70;0.70;;;;;;;12.03;100.00;96264.50;29395;223;63028;-63
2023/08/30 01:53:32;;;;;;;0.50;0.50;;;;;;;12.03;100.00;96262.59;29395;229;63005;-64
2023/08/30 01:54:06;;;;;;;0.50;0.50;;;;;;;12.04;100.00;96261.47;29395;232;63009;-65
2023/08/30 01:54:41;;;;;;;0.50;0.50;;;;;;;12.05;100.00;96263.06;29395;223;63004;-63
2023/08/30 01:55:18;;;;;;;0.50;0.50;;;;;;;12.06;100.00;96261.97;29394;206;64013;-65
2023/08/30 01:55:50;;;;;;;0.40;0.40;;;;;;;12.06;100.00;96264.69;29395;212;63009;-63
2023/08/30 01:56:21;;;;;;;0.50;0.50;;;;;;;12.05;100.00;96262.28;29395;207;63008;-64
2023/08/30 01:56:53;;;;;;;0.50;0.50;;;;;;;12.02;100.00;96263.72;29395;218;63004;-55
2023/08/30 01:57:25;;;;;;;0.50;0.50;;;;;;;12.01;100.00;96267.53;29395;239;63009;-63
2023/08/30 01:57:57;;;;;;;0.50;0.50;;;;;;;12.00;100.00;96265.13;29394;279;64009;-63
2023/08/30 01:58:28;;;;;;;0.50;0.50;;;;;;;11.98;100.00;96261.94;29395;207;63009;-64
2023/08/30 01:59:00;;;;;;;0.45;0.45;;;;;;;11.99;100.00;96267.06;29395;216;63005;-63
2023/08/30 01:59:31;;;;;;;0.50;0.50;;;;;;;11.99;100.00;96264.34;29395;197;63009;-63
2023/08/30 02:00:04;;;;;;;0.50;0.50;;;;;;;11.97;100.00;96263.84;29395;245;63005;-64
2023/08/30 02:00:37;;;;;;;0.50;0.50;;;;;;;11.98;100.00;96265.47;29395;264;63009;-64
2023/08/30 02:01:08;;;;;;;0.50;0.50;;;;;;;12.00;100.00;96260.50;29395;217;63004;-64
2023/08/30 02:01:43;;;;;;;0.50;0.50;;;;;;;11.99;100.00;96258.91;29395;198;63009;-62
2023/08/30 02:02:17;;;;;;;0.50;0.50;;;;;;;11.99;100.00;96264.34;29395;202;63004;-64
2023/08/30 02:02:50;;;;;;;0.50;0.50;;;;;;;11.98;100.00;96260.00;29395;232;63015;-63
2023/08/30 02:03:21;;;;;;;0.50;0.50;;;;;;;11.98;100.00;96261.94;29394;219;64008;-64
2023/08/30 02:03:52;;;;;;;0.50;0.50;;;;;;;11.98;100.00;96262.72;29395;235;63009;-62
2023/08/30 02:04:25;;;;;;;0.50;0.50;;;;;;;11.98;100.00;96262.72;29395;208;63012;-63
2023/08/30 02:04:56;;;;;;;0.50;0.50;;;;;;;11.98;100.00;96265.47;29395;197;63009;-63
2023/08/30 02:05:28;;;;;;;0.50;0.50;;;;;;;11.96;100.00;96264.97;29395;239;63005;-63
2023/08/30 02:06:12;;;;;;;0.50;0.50;;;;;;;11.95;100.00;96262.56;29394;218;64013;-63
2023/08/30 02:06:50;;;;;;;0.50;0.50;;;;;;;11.92;100.00;96264.00;29395;220;63005;-63
2023/08/30 02:07:49;;;;;;;0.50;0.50;;;;;;;11.91;100.00;96262.41;29395;221;63009;-63
2023/08/30 02:08:26;;;;;;;0.50;0.50;;;;;;;11.90;100.00;96260.78;29395;278;63004;-63
2023/08/30 02:09:28;;;;;;;0.50;0.50;;;;;;;11.89;100.00;96270.06;29395;376;63020;-63
2023/08/30 02:10:06;;;;;;;0.50;0.50;;;;;;;11.89;100.00;96270.06;29416;215;64004;-63
2023/08/30 02:10:45;;;;;;;0.50;0.50;;;;;;;11.88;100.00;96273.91;29395;287;63008;-63
2023/08/30 02:11:22;;;;;;;0.50;0.50;;;;;;;11.87;100.00;96264.13;29394;196;64008;-63
2023/08/30 02:11:55;;;;;;;0.50;0.50;;;;;;;11.89;100.00;96275.50;29394;202;64014;-66
2023/08/30 02:12:47;;;;;;;0.50;0.50;;;;;;;11.90;100.00;96271.66;29395;258;63005;-63
2023/08/30 02:24:53;;;;;;;0.50;0.50;;;;;;;11.89;100.00;96267.34;88122;215;64004;-63
2023/08/30 02:25:25;;;;;;;0.50;0.50;;;;;;;11.90;100.00;96270.88;29394;292;64009;-62
2023/08/30 02:25:57;;;;;;;0.50;0.50;;;;;;;11.90;100.00;96270.88;29395;256;63009;-62
2023/08/30 02:26:28;;;;;;;0.50;0.50;;;;;;;11.90;100.00;96266.22;29395;203;63009;-62
2023/08/30 02:26:59;;;;;;;0.50;0.50;;;;;;;11.90;100.00;96270.88;29395;240;63005;-62
2023/08/30 02:27:32;;;;;;;0.50;0.50;;;;;;;11.90;100.00;96263.50;29395;342;63009;-62
2023/08/30 02:28:04;;;;;;;0.50;0.50;;;;;;;11.91;100.00;96267.84;29394;215;64009;-62
2023/08/30 02:28:35;;;;;;;0.50;0.50;;;;;;;11.90;100.00;96274.37;29395;222;63009;-61
2023/08/30 02:29:10;;;;;;;0.47;0.47;;;;;;;11.89;100.00;96270.06;29395;211;63004;-63
2023/08/30 02:29:41;;;;;;;0.73;0.73;;;;;;;11.88;100.00;96262.22;29395;222;63009;-63
2023/08/30 02:30:13;;;;;;;0.50;0.50;;;;;;;11.87;100.00;96260.63;29395;350;63004;-61
2023/08/30 02:30:47;;;;;;;0.50;0.50;;;;;;;11.86;100.00;96265.25;29395;221;63008;-65
2023/08/30 02:31:19;;;;;;;0.50;0.50;;;;;;;11.87;100.00;96266.84;29395;281;63004;-63
2023/08/30 02:31:50;;;;;;;0.47;0.47;;;;;;;11.88;100.00;96260.31;29395;219;63027;-63
2023/08/30 02:32:22;;;;;;;0.50;0.50;;;;;;;11.88;100.00;96259.50;29395;207;63005;-64
2023/08/30 02:32:54;;;;;;;0.50;0.50;;;;;;;11.88;100.00;96273.09;29394;210;64014;-65
2023/08/30 02:33:25;;;;;;;0.50;0.50;;;;;;;11.89;100.00;96267.34;29395;226;63011;-65
2023/08/30 02:33:56;;;;;;;0.50;0.50;;;;;;;11.88;100.00;96260.31;29395;198;63005;-63
2023/08/30 02:34:31;;;;;;;0.50;0.50;;;;;;;11.90;100.00;96260.78;29394;202;64009;-64
2023/08/30 02:35:03;;;;;;;0.50;0.50;;;;;;;11.90;100.00;96268.94;29395;216;63016;-63
2023/08/30 02:35:34;;;;;;;0.50;0.50;;;;;;;11.90;100.00;96258.06;29395;206;63004;-63
2023/08/30 02:36:08;;;;;;;0.50;0.50;;;;;;;11.91;100.00;96267.03;29395;234;63009;-55
2023/08/30 02:36:40;;;;;;;0.50;0.50;;;;;;;11.88;100.00;96263.03;29395;212;63004;-65
2023/08/30 02:37:11;;;;;;;0.40;0.40;;;;;;;11.87;100.00;96264.13;29395;209;63009;-62
2023/08/30 02:37:43;;;;;;;0.50;0.50;;;;;;;11.87;100.00;96261.41;29395;211;63004;-63
2023/08/30 02:38:14;;;;;;;0.50;0.50;;;;;;;11.86;100.00;96264.47;29394;268;64013;-64
2023/08/30 02:38:46;;;;;;;0.50;0.50;;;;;;;11.85;100.00;96269.09;29395;223;63004;-63
2023/08/30 02:39:17;;;;;;;0.50;0.50;;;;;;;11.84;100.00;96266.69;29395;239;63009;-64
2023/08/30 02:39:49;;;;;;;0.50;0.50;;;;;;;11.85;100.00;96268.28;29395;211;63009;-55
2023/08/30 02:40:20;;;;;;;0.40;0.40;;;;;;;11.85;100.00;96269.09;29395;235;63009;-63
2023/08/30 02:40:51;;;;;;;0.45;0.45;;;;;;;11.85;100.00;96269.09;29394;235;64005;-62
2023/08/30 02:41:22;;;;;;;0.50;0.50;;;;;;;11.86;100.00;96275.31;29395;198;63016;-63
2023/08/30 02:41:54;;;;;;;0.50;0.50;;;;;;;11.85;100.00;96274.53;29395;209;63005;-63
2023/08/30 02:42:26;;;;;;;0.50;0.50;;;;;;;11.84;100.00;96269.41;29395;328;63009;-63
2023/08/30 02:42:57;;;;;;;0.50;0.50;;;;;;;11.83;100.00;96276.75;29395;218;63005;-63
2023/08/30 02:43:28;;;;;;;0.50;0.50;;;;;;;11.84;100.00;96266.69;29394;322;64013;-66
2023/08/30 02:44:00;;;;;;;0.50;0.50;;;;;;;11.85;100.00;96279.97;29395;215;63007;-64
2023/08/30 02:44:31;;;;;;;0.50;0.50;;;;;;;11.85;100.00;96269.09;29395;266;63009;-64
2023/08/30 02:45:03;;;;;;;0.50;0.50;;;;;;;11.87;100.00;96275.00;29395;329;63004;-63
2023/08/30 02:45:36;;;;;;;0.50;0.50;;;;;;;11.89;100.00;96278.22;29395;202;63009;-56
2023/08/30 02:46:08;;;;;;;0.50;0.50;;;;;;;11.89;100.00;96275.50;29395;277;63004;-55
2023/08/30 02:46:39;;;;;;;0.50;0.50;;;;;;;11.90;100.00;96268.94;29395;239;63009;-63
2023/08/30 02:47:11;;;;;;;0.50;0.50;;;;;;;11.91;100.00;96270.56;29394;309;64009;-63
2023/08/30 02:47:44;;;;;;;0.50;0.50;;;;;;;11.91;100.00;96267.84;29394;290;64014;-63
2023/08/30 02:48:15;;;;;;;0.40;0.40;;;;;;;11.92;100.00;96277.59;29395;236;63005;-62
2023/08/30 02:48:46;;;;;;;0.50;0.50;;;;;;;11.92;100.00;96280.31;29395;243;63009;-65
2023/08/30 02:49:19;;;;;;;0.50;0.50;;;;;;;11.93;100.00;96278.38;29394;237;64009;-63
2023/08/30 02:49:51;;;;;;;0.50;0.50;;;;;;;11.93;100.00;96270.22;29394;212;64013;-55
2023/08/30 02:50:26;;;;;;;0.45;0.45;;;;;;;11.93;100.00;96276.47;29395;211;63005;-63
2023/08/30 02:50:57;;;;;;;0.50;0.50;;;;;;;11.94;100.00;96275.34;29395;227;63009;-64